PVG77 RJAA-EPWR
Flight info
| Callsign | PVG77 |
|---|---|
| Flight time | N/A |
| Altitude | 30000 |
| Route | ENPAR Y16 SAPRA/N0498F320 G585 SEL Y697 AGAVO/K0917S0980 A591 IKEKA W4 HCH W200 DOVIV W55 PAMRU W34 VYK B215 LEBOM W104 VEXEB W47 IDSOT W48 DKO W66 IPDAT/K0913S1040 W66 NUKTI B215 FKG A368 SARIN/K0898F340 N161 ALZIS/K0896F360 N161 GASBI/N0489F360 N161 LEYLA N644 TETRO DCT SARPI UM10 GOKPA/N0489F380 UL746 ODERO DCT KARIL DCT LENOV L619 LUMVE |
| Aircraft | B77W/H-SDE1E2E3FGHIJ2J3J4J5M1RWXY/LB1D1 |
Departure
| Time | 2026-05-05 15:09 |
|---|---|
| Airport | Narita International Airport (RJAA) |
Arrival
| Time | N/A |
|---|---|
| Airport | Copernicus Wrocław Airport (EPWR) |
| Time | Latitude | Longitude | Altitude | Speed | Heading |
|---|---|---|---|---|---|
| 2026-05-05 14:37 | 35.76191 | 140.38896 | 144 ft | 0 kts | 332° |
| 2026-05-05 14:54 | 35.76185 | 140.38899 | 143 ft | 2 kts | 322° |
| 2026-05-05 14:55 | 35.76176 | 140.38913 | 143 ft | 2 kts | 290° |
| 2026-05-05 14:55 | 35.76174 | 140.38930 | 143 ft | 2 kts | 265° |
| 2026-05-05 14:55 | 35.76177 | 140.38948 | 143 ft | 2 kts | 239° |
| 2026-05-05 14:55 | 35.76186 | 140.38960 | 144 ft | 2 kts | 214° |
| 2026-05-05 14:56 | 35.76193 | 140.38965 | 144 ft | 0 kts | 204° |
| 2026-05-05 15:00 | 35.76174 | 140.38959 | 143 ft | 4 kts | 186° |
| 2026-05-05 15:00 | 35.76127 | 140.38959 | 142 ft | 9 kts | 183° |
| 2026-05-05 15:01 | 35.76058 | 140.38947 | 141 ft | 11 kts | 197° |
| 2026-05-05 15:01 | 35.75980 | 140.38911 | 140 ft | 12 kts | 202° |
| 2026-05-05 15:01 | 35.75904 | 140.38872 | 140 ft | 11 kts | 205° |
| 2026-05-05 15:01 | 35.75836 | 140.38832 | 140 ft | 10 kts | 207° |
| 2026-05-05 15:02 | 35.75779 | 140.38786 | 141 ft | 9 kts | 219° |
| 2026-05-05 15:02 | 35.75738 | 140.38739 | 142 ft | 7 kts | 230° |
| 2026-05-05 15:02 | 35.75708 | 140.38686 | 143 ft | 8 kts | 246° |
| 2026-05-05 15:02 | 35.75709 | 140.38617 | 143 ft | 9 kts | 299° |
| 2026-05-05 15:03 | 35.75760 | 140.38559 | 143 ft | 11 kts | 322° |
| 2026-05-05 15:03 | 35.75827 | 140.38495 | 143 ft | 13 kts | 323° |
| 2026-05-05 15:03 | 35.75899 | 140.38429 | 144 ft | 13 kts | 324° |
| 2026-05-05 15:03 | 35.75974 | 140.38362 | 146 ft | 12 kts | 323° |
| 2026-05-05 15:04 | 35.76018 | 140.38304 | 146 ft | 9 kts | 302° |
| 2026-05-05 15:04 | 35.76070 | 140.38214 | 146 ft | 16 kts | 312° |
| 2026-05-05 15:04 | 35.76176 | 140.38126 | 146 ft | 22 kts | 330° |
| 2026-05-05 15:04 | 35.76322 | 140.38017 | 143 ft | 28 kts | 329° |
| 2026-05-05 15:05 | 35.76688 | 140.37746 | 138 ft | 34 kts | 328° |
| 2026-05-05 15:05 | 35.76857 | 140.37572 | 135 ft | 31 kts | 305° |
| 2026-05-05 15:05 | 35.77004 | 140.37404 | 133 ft | 28 kts | 327° |
| 2026-05-05 15:06 | 35.77163 | 140.37293 | 131 ft | 26 kts | 329° |
| 2026-05-05 15:06 | 35.77303 | 140.37181 | 130 ft | 23 kts | 328° |
| 2026-05-05 15:06 | 35.77430 | 140.37089 | 129 ft | 20 kts | 322° |
| 2026-05-05 15:06 | 35.77472 | 140.36969 | 131 ft | 10 kts | 253° |
| 2026-05-05 15:07 | 35.77464 | 140.36942 | 132 ft | 0 kts | 250° |
| 2026-05-05 15:07 | 35.77459 | 140.36926 | 132 ft | 4 kts | 250° |
| 2026-05-05 15:07 | 35.77441 | 140.36883 | 133 ft | 7 kts | 227° |
| 2026-05-05 15:07 | 35.77397 | 140.36868 | 134 ft | 7 kts | 162° |
| 2026-05-05 15:08 | 35.77380 | 140.36877 | 134 ft | 0 kts | 155° |
| 2026-05-05 15:08 | 35.77271 | 140.36945 | 134 ft | 51 kts | 151° |
| 2026-05-05 15:08 | 35.76763 | 140.37317 | 135 ft | 122 kts | 149° |
| 2026-05-05 15:08 | 35.75864 | 140.37964 | 144 ft | 186 kts | 150° |
| 2026-05-05 15:09 | 35.74672 | 140.38818 | 385 ft | 222 kts | 151° |
| 2026-05-05 15:09 | 35.73360 | 140.39774 | 1287 ft | 231 kts | 151° |
| 2026-05-05 15:09 | 35.72167 | 140.40640 | 2505 ft | 206 kts | 152° |
| 2026-05-05 15:09 | 35.70925 | 140.41534 | 2764 ft | 224 kts | 151° |
| 2026-05-05 15:10 | 35.69608 | 140.42484 | 3262 ft | 229 kts | 152° |
| 2026-05-05 15:10 | 35.68261 | 140.43454 | 3682 ft | 242 kts | 152° |
| 2026-05-05 15:10 | 35.66828 | 140.44484 | 4072 ft | 253 kts | 151° |
| 2026-05-05 15:10 | 35.65351 | 140.45549 | 4613 ft | 260 kts | 151° |
| 2026-05-05 15:11 | 35.63823 | 140.46649 | 5135 ft | 266 kts | 152° |
| 2026-05-05 15:11 | 35.62301 | 140.47745 | 5721 ft | 269 kts | 152° |
| 2026-05-05 15:11 | 35.60728 | 140.48877 | 6269 ft | 274 kts | 152° |
| 2026-05-05 15:11 | 35.59125 | 140.50030 | 6838 ft | 278 kts | 152° |